Main page
METAR-TAF:

METAR-TAF

Airports :

Ämari Air Base

Ämari, Estonia

latitude: 59-15-44N, longitude: 24-13-07E, elevation: 20 m

METAR: missing

Time: 02:09 (00:09 UTC)

Forecast

The report was made 6 hours and 39 minutes ago, at 17:30 UTC
Forecast valid from 26 at 18 UTC to 27 at 18 UTC
Wind 8 kt from the North
Visibility: 6000 m
Overcast at a height of 600 ft
light snow
Temporary
from 26 at 18 UTC to 26 at 23 UTC
Visibility: 1500 m
Broken clouds at a height of 400 ft
snow, rain
Temporary
from 26 at 23 UTC to 27 at 06 UTC
Visibility: 3000 m
Broken clouds at a height of 300 ft
rain, snow
Temporary
from 27 at 11 UTC to 27 at 18 UTC
Visibility: 3000 m
snow
Becoming
from 27 at 15 UTC to 27 at 17 UTC
Wind 10 kt from the West

TAF: EEEI 261730Z 2618/2718 01008KT 6000 -SN OVC006 TEMPO 2618/2623 1500 SNRA BKN004 TEMPO 2623/2706 3000 RASN BKN003 TEMPO 2711/2718 3000 SN BECMG 2715/2717 27010KT

Weather observations and forecasts of more than 4000 airports (METAR and TAF reports).

The available stations are represented by yellow and red dots on the map.

Hover mouse over dot to see the name of the station.

Then click to see weather observations and forecasts.

To change the map : click on the green buttons with a black cross to zoom in, on the green button with a dash to zoom out, or on the green arrows for adjacent maps.


METAR-TAF: